Time;durP1;ratioP1;P1;durP2;ratioP2;P2;SDS_P1;SDS_P2;PMS_P1;PMS_P2;Temp;Humidity;BMP_temperature;BMP_pressure;BME280_temperature;BME280_humidity;BME280_pressure;Samples;Min_cycle;Max_cycle;Signal;HPM_P1;HPM_P2
2023/05/13 00:00:35;;;;;;;;;;;14.90;48.10;;;;;;4998330;28;19953;-68
2023/05/13 00:03:00;;;;;;;;;;;14.90;48.10;;;;;;4997987;28;19985;-68
2023/05/13 00:05:26;;;;;;;;;;;14.80;48.50;;;;;;4998500;28;19914;-68
2023/05/13 00:07:51;;;;;;;;;;;14.80;49.40;;;;;;4990906;28;19921;-68
2023/05/13 00:10:19;;;;;;;;;;;14.80;49.40;;;;;;4978717;28;19949;-67
2023/05/13 00:12:44;;;;;;;;;;;14.80;49.20;;;;;;4978786;28;20300;-68
2023/05/13 00:15:10;;;;;;;;;;;14.80;49.00;;;;;;4978314;28;19961;-68
2023/05/13 00:17:35;;;;;;;;;;;14.80;48.90;;;;;;4978995;28;19914;-67
2023/05/13 00:20:01;;;;;;;;;;;14.80;48.80;;;;;;4978298;28;19918;-68
2023/05/13 00:22:26;;;;;;;;;;;14.70;48.90;;;;;;4978178;28;20053;-68
2023/05/13 00:24:52;;;;;;;;;;;14.70;49.00;;;;;;4978746;28;19937;-68
2023/05/13 00:27:17;;;;;;;;;;;14.70;49.50;;;;;;4977935;28;20330;-67
2023/05/13 00:29:42;;;;;;;;;;;14.60;49.60;;;;;;4978814;28;20313;-68
2023/05/13 00:32:08;;;;;;;;;;;14.70;49.70;;;;;;4978739;28;19914;-67
2023/05/13 00:34:33;;;;;;;;;;;14.70;49.70;;;;;;4978646;28;19933;-68
2023/05/13 00:36:59;;;;;;;;;;;14.70;49.90;;;;;;4978654;28;19942;-69
2023/05/13 00:39:26;;;;;;;;;;;14.70;49.70;;;;;;4978428;28;20397;-68
2023/05/13 00:41:51;;;;;;;;;;;14.70;49.60;;;;;;4978427;28;19956;-68
2023/05/13 00:44:16;;;;;;;;;;;14.70;49.50;;;;;;4978333;28;19910;-68
2023/05/13 00:46:42;;;;;;;;;;;14.60;49.50;;;;;;4977683;28;20298;-67
2023/05/13 00:49:08;;;;;;;;;;;14.60;49.60;;;;;;4978592;28;19910;-68
2023/05/13 00:51:33;;;;;;;;;;;14.60;49.50;;;;;;4977958;28;20391;-68
2023/05/13 00:53:58;;;;;;;;;;;14.60;49.50;;;;;;4979874;28;19921;-68
2023/05/13 00:56:25;;;;;;;;;;;14.60;49.50;;;;;;4981789;28;19925;-68
2023/05/13 00:58:50;;;;;;;;;;;14.60;49.50;;;;;;4981790;28;19914;-68
2023/05/13 01:01:19;;;;;;;;;;;14.60;49.60;;;;;;4982062;28;19937;-68
2023/05/13 01:04:08;;;;;;;;;;;14.50;49.60;;;;;;4982378;28;19922;-67
2023/05/13 01:06:36;;;;;;;;;;;14.50;49.80;;;;;;4981792;28;19914;-68
2023/05/13 01:09:07;;;;;;;;;;;14.50;50.90;;;;;;4998919;28;19917;-67
2023/05/13 01:11:37;;;;;;;;;;;14.50;50.60;;;;;;5001552;28;19921;-68
2023/05/13 01:14:10;;;;;;;;;;;14.50;50.60;;;;;;5000844;28;19913;-68
2023/05/13 01:16:41;;;;;;;;;;;14.40;50.60;;;;;;5001458;28;19913;-68
2023/05/13 01:19:20;;;;;;;;;;;14.40;50.30;;;;;;5000840;28;20360;-68
2023/05/13 01:21:52;;;;;;;;;;;14.40;50.30;;;;;;5001145;28;19920;-68
2023/05/13 01:24:17;;;;;;;;;;;14.40;50.50;;;;;;5000685;28;19910;-68
2023/05/13 01:26:42;;;;;;;;;;;14.30;50.50;;;;;;5000855;28;19914;-67
2023/05/13 01:29:08;;;;;;;;;;;14.30;50.50;;;;;;5000498;28;20300;-68
2023/05/13 01:31:34;;;;;;;;;;;14.30;50.50;;;;;;5000748;28;20329;-68
2023/05/13 01:34:00;;;;;;;;;;;14.30;50.50;;;;;;5000372;28;19920;-68
2023/05/13 01:36:25;;;;;;;;;;;14.30;50.50;;;;;;5001079;28;19914;-68
2023/05/13 01:38:51;;;;;;;;;;;14.30;50.50;;;;;;5000540;28;19921;-67
2023/05/13 01:41:16;;;;;;;;;;;14.30;50.70;;;;;;5000709;28;19972;-68
2023/05/13 01:43:42;;;;;;;;;;;14.30;50.70;;;;;;4999962;28;19914;-68
2023/05/13 01:46:11;;;;;;;;;;;14.20;50.60;;;;;;5000585;28;19985;-68
2023/05/13 01:48:36;;;;;;;;;;;14.20;50.50;;;;;;5000168;28;19921;-68
2023/05/13 01:51:02;;;;;;;;;;;14.00;50.50;;;;;;5000797;28;19913;-68
2023/05/13 01:53:27;;;;;;;;;;;14.00;50.50;;;;;;5000140;28;19917;-67
2023/05/13 01:55:53;;;;;;;;;;;13.90;50.50;;;;;;4999911;28;19921;-68
2023/05/13 01:58:18;;;;;;;;;;;13.90;50.60;;;;;;5000713;28;19921;-68
2023/05/13 02:00:43;;;;;;;;;;;13.90;50.60;;;;;;5000345;28;20334;-68
2023/05/13 02:03:09;;;;;;;;;;;13.80;50.70;;;;;;5000046;28;20262;-68
2023/05/13 02:05:34;;;;;;;;;;;13.80;50.70;;;;;;4999788;28;19913;-68
2023/05/13 02:08:00;;;;;;;;;;;13.80;50.70;;;;;;4988493;28;20386;-63
2023/05/13 02:10:25;;;;;;;;;;;13.70;50.80;;;;;;4975819;28;19915;-65
2023/05/13 02:12:51;;;;;;;;;;;13.70;50.90;;;;;;4975857;28;19915;-63
2023/05/13 02:15:16;;;;;;;;;;;13.70;51.00;;;;;;4975623;28;19926;-63
2023/05/13 02:17:42;;;;;;;;;;;13.70;51.10;;;;;;4975370;28;20351;-63
2023/05/13 02:20:07;;;;;;;;;;;13.70;51.00;;;;;;4975609;28;19919;-63
2023/05/13 02:22:33;;;;;;;;;;;13.70;51.10;;;;;;4975311;28;19914;-63
2023/05/13 02:24:58;;;;;;;;;;;13.60;51.40;;;;;;4975338;28;20330;-64
2023/05/13 02:27:24;;;;;;;;;;;13.60;51.50;;;;;;4975584;28;20389;-63
2023/05/13 02:29:49;;;;;;;;;;;13.60;51.60;;;;;;4975340;28;19964;-63
2023/05/13 02:32:15;;;;;;;;;;;13.60;51.60;;;;;;4975158;28;19915;-63
2023/05/13 02:34:40;;;;;;;;;;;13.50;51.60;;;;;;4975095;28;20382;-64
2023/05/13 02:37:06;;;;;;;;;;;13.50;51.50;;;;;;4975044;28;19914;-63
2023/05/13 02:39:31;;;;;;;;;;;13.50;51.50;;;;;;4975121;28;19910;-63
2023/05/13 02:41:56;;;;;;;;;;;13.50;51.50;;;;;;4975250;28;19914;-63
2023/05/13 02:44:22;;;;;;;;;;;13.50;51.50;;;;;;4958134;28;19910;-63
2023/05/13 02:46:47;;;;;;;;;;;13.40;51.40;;;;;;4974771;28;19922;-63
2023/05/13 02:49:13;;;;;;;;;;;13.50;51.50;;;;;;4974930;28;19910;-63
2023/05/13 02:51:38;;;;;;;;;;;13.50;51.50;;;;;;4974669;28;19914;-63
2023/05/13 02:54:04;;;;;;;;;;;13.40;51.50;;;;;;4974671;28;19925;-63
2023/05/13 02:56:29;;;;;;;;;;;13.40;51.60;;;;;;4975302;28;20279;-64
2023/05/13 02:58:55;;;;;;;;;;;13.40;51.70;;;;;;4974688;28;19961;-63
2023/05/13 03:01:20;;;;;;;;;;;13.30;51.80;;;;;;4975061;28;20651;-63
2023/05/13 03:03:46;;;;;;;;;;;13.30;51.90;;;;;;4980185;28;19914;-68
2023/05/13 03:06:11;;;;;;;;;;;13.30;51.90;;;;;;4980548;28;20018;-68
2023/05/13 03:08:36;;;;;;;;;;;13.20;51.90;;;;;;4993508;28;19913;-68
2023/05/13 03:11:02;;;;;;;;;;;13.30;51.90;;;;;;5000573;28;19974;-68
2023/05/13 03:13:28;;;;;;;;;;;13.20;51.90;;;;;;5000203;28;19917;-68
2023/05/13 03:15:53;;;;;;;;;;;13.30;52.00;;;;;;5000238;28;19970;-68
2023/05/13 03:18:18;;;;;;;;;;;13.20;52.00;;;;;;4998269;28;20385;-68
2023/05/13 03:20:44;;;;;;;;;;;13.20;52.00;;;;;;4999381;28;19969;-68
2023/05/13 03:23:09;;;;;;;;;;;13.20;52.00;;;;;;4999498;28;20013;-68
2023/05/13 03:25:35;;;;;;;;;;;13.20;52.00;;;;;;4999414;28;19953;-67
2023/05/13 03:28:01;;;;;;;;;;;13.20;52.10;;;;;;4999619;28;19918;-68
2023/05/13 03:30:27;;;;;;;;;;;13.20;52.10;;;;;;4999134;28;19913;-68
2023/05/13 03:32:52;;;;;;;;;;;13.20;52.00;;;;;;4998486;28;19979;-68
2023/05/13 03:35:18;;;;;;;;;;;13.10;52.00;;;;;;4998762;28;19917;-68
2023/05/13 03:37:43;;;;;;;;;;;13.10;52.00;;;;;;4998477;28;19953;-68
2023/05/13 03:40:09;;;;;;;;;;;13.10;52.10;;;;;;4981141;28;19914;-68
2023/05/13 03:42:34;;;;;;;;;;;13.10;52.30;;;;;;4998917;28;19914;-68
2023/05/13 03:45:00;;;;;;;;;;;13.00;52.70;;;;;;4998403;28;19917;-68
2023/05/13 03:47:25;;;;;;;;;;;13.10;52.80;;;;;;4998302;28;19922;-68
2023/05/13 03:49:51;;;;;;;;;;;13.00;53.10;;;;;;4998926;28;19960;-68
2023/05/13 03:52:16;;;;;;;;;;;13.00;53.10;;;;;;4995531;28;19976;-63
2023/05/13 03:54:41;;;;;;;;;;;13.00;53.10;;;;;;4993072;28;19984;-63
2023/05/13 03:57:07;;;;;;;;;;;13.10;53.10;;;;;;4993189;28;19914;-63
2023/05/13 03:59:33;;;;;;;;;;;13.10;53.20;;;;;;4993041;28;19910;-63
2023/05/13 04:01:58;;;;;;;;;;;13.20;53.20;;;;;;4992819;28;19914;-63
2023/05/13 04:04:24;;;;;;;;;;;13.30;53.20;;;;;;4992891;28;19961;-63
2023/05/13 04:06:49;;;;;;;;;;;13.30;53.20;;;;;;4992872;28;19996;-63
2023/05/13 04:09:14;;;;;;;;;;;13.40;53.40;;;;;;4974224;28;19910;-63
2023/05/13 04:11:40;;;;;;;;;;;13.50;53.80;;;;;;4973664;28;20425;-63
2023/05/13 04:14:05;;;;;;;;;;;13.70;54.10;;;;;;4955947;28;19910;-63
2023/05/13 04:16:31;;;;;;;;;;;13.90;54.50;;;;;;4973787;28;19918;-64
2023/05/13 04:18:56;;;;;;;;;;;14.20;55.00;;;;;;4973399;28;19918;-63
2023/05/13 04:21:21;;;;;;;;;;;14.50;55.50;;;;;;4973019;28;19962;-64
2023/05/13 04:23:47;;;;;;;;;;;14.80;55.90;;;;;;4973400;28;20396;-64
2023/05/13 04:26:13;;;;;;;;;;;15.20;56.10;;;;;;4973740;28;19997;-64
2023/05/13 04:28:38;;;;;;;;;;;15.60;56.20;;;;;;4973004;28;19950;-63
2023/05/13 04:31:03;;;;;;;;;;;15.90;56.30;;;;;;4973529;28;19914;-63
2023/05/13 04:33:29;;;;;;;;;;;16.30;56.40;;;;;;4973245;28;19918;-63
2023/05/13 04:35:54;;;;;;;;;;;16.70;56.40;;;;;;4973402;28;19918;-63
2023/05/13 04:38:20;;;;;;;;;;;17.10;56.10;;;;;;4973074;28;20310;-64
2023/05/13 04:40:46;;;;;;;;;;;17.50;55.90;;;;;;4973456;28;19961;-63
2023/05/13 04:43:12;;;;;;;;;;;17.90;55.60;;;;;;4973025;28;19965;-63
2023/05/13 04:45:37;;;;;;;;;;;18.30;55.10;;;;;;4973277;28;19914;-63
2023/05/13 04:48:03;;;;;;;;;;;18.50;54.40;;;;;;4972940;28;20366;-63
2023/05/13 04:50:28;;;;;;;;;;;18.70;53.50;;;;;;4973134;28;20384;-64
2023/05/13 04:52:55;;;;;;;;;;;18.80;53.30;;;;;;4972964;28;19925;-63
2023/05/13 04:55:21;;;;;;;;;;;19.10;53.10;;;;;;4973031;28;19918;-64
2023/05/13 04:57:46;;;;;;;;;;;19.40;53.40;;;;;;4973126;28;20437;-63
2023/05/13 05:00:12;;;;;;;;;;;19.80;53.50;;;;;;4973052;28;20426;-63
2023/05/13 05:02:37;;;;;;;;;;;20.30;53.60;;;;;;4972789;28;19964;-63
2023/05/13 05:05:04;;;;;;;;;;;20.70;53.30;;;;;;4973024;28;20378;-63
2023/05/13 05:07:29;;;;;;;;;;;21.10;53.00;;;;;;4977182;28;19921;-63
2023/05/13 05:09:55;;;;;;;;;;;21.50;52.60;;;;;;4992287;28;19914;-64
2023/05/13 05:12:20;;;;;;;;;;;21.80;51.50;;;;;;4992317;28;19914;-63
2023/05/13 05:14:45;;;;;;;;;;;22.20;51.10;;;;;;4991942;28;20289;-63
2023/05/13 05:17:11;;;;;;;;;;;22.30;49.90;;;;;;4998795;28;19913;-68
2023/05/13 05:19:36;;;;;;;;;;;22.50;49.60;;;;;;4999062;28;19989;-69
2023/05/13 05:22:02;;;;;;;;;;;22.80;49.60;;;;;;4998703;28;19914;-68
2023/05/13 05:24:27;;;;;;;;;;;23.20;49.70;;;;;;4999720;28;19913;-68
2023/05/13 05:26:59;;;;;;;;;;;23.60;49.50;;;;;;5001412;28;19913;-69
2023/05/13 05:29:24;;;;;;;;;;;24.10;48.60;;;;;;5002146;28;19921;-68
2023/05/13 05:31:50;;;;;;;;;;;24.50;48.30;;;;;;5001417;28;19914;-69
2023/05/13 05:34:15;;;;;;;;;;;25.00;47.50;;;;;;4999714;28;19910;-69
2023/05/13 05:36:40;;;;;;;;;;;25.50;46.10;;;;;;5001156;28;20319;-68
2023/05/13 05:39:06;;;;;;;;;;;25.90;45.30;;;;;;5003256;28;19941;-69
2023/05/13 05:41:31;;;;;;;;;;;26.30;44.10;;;;;;5004471;28;19945;-69
2023/05/13 05:43:57;;;;;;;;;;;26.60;43.70;;;;;;5006633;28;19913;-69
2023/05/13 05:46:22;;;;;;;;;;;26.90;42.80;;;;;;5005827;28;19922;-69
2023/05/13 05:48:48;;;;;;;;;;;27.20;42.30;;;;;;5005328;28;19976;-69
2023/05/13 05:51:13;;;;;;;;;;;27.60;41.50;;;;;;5007381;28;20004;-69
2023/05/13 05:53:42;;;;;;;;;;;27.90;40.80;;;;;;5005975;28;19993;-69
2023/05/13 05:56:07;;;;;;;;;;;28.20;39.70;;;;;;5005671;28;20353;-69
2023/05/13 05:58:33;;;;;;;;;;;28.40;38.80;;;;;;5003946;28;19953;-65
2023/05/13 06:00:59;;;;;;;;;;;28.80;38.90;;;;;;5003761;28;19910;-67
2023/05/13 06:03:25;;;;;;;;;;;29.10;38.50;;;;;;5002859;28;19993;-67
2023/05/13 06:05:50;;;;;;;;;;;29.60;37.90;;;;;;5002847;28;20349;-69
2023/05/13 06:08:16;;;;;;;;;;;30.00;37.00;;;;;;4991244;28;19981;-67
2023/05/13 06:10:42;;;;;;;;;;;30.30;36.30;;;;;;4982488;28;19921;-67
2023/05/13 06:13:08;;;;;;;;;;;30.60;35.10;;;;;;4981775;28;19957;-68
2023/05/13 06:15:33;;;;;;;;;;;30.90;34.60;;;;;;4982372;28;19918;-67
2023/05/13 06:17:58;;;;;;;;;;;31.20;34.50;;;;;;4981474;28;19918;-67
2023/05/13 06:20:24;;;;;;;;;;;31.50;33.60;;;;;;4980057;28;19956;-68
2023/05/13 06:22:49;;;;;;;;;;;31.70;32.90;;;;;;4979526;28;20425;-67
2023/05/13 06:25:15;;;;;;;;;;;31.90;31.80;;;;;;4980766;28;20357;-67
2023/05/13 06:27:40;;;;;;;;;;;32.20;31.50;;;;;;4979296;28;19969;-67
2023/05/13 06:30:06;;;;;;;;;;;32.40;30.50;;;;;;4978440;28;19910;-67
2023/05/13 06:32:31;;;;;;;;;;;32.60;29.70;;;;;;4977600;28;19918;-67
2023/05/13 06:34:57;;;;;;;;;;;32.70;28.90;;;;;;4976977;28;19924;-68
2023/05/13 06:37:22;;;;;;;;;;;32.80;28.10;;;;;;4976620;28;20009;-67
2023/05/13 06:39:48;;;;;;;;;;;33.00;28.00;;;;;;4976758;28;20302;-67
2023/05/13 06:42:13;;;;;;;;;;;33.20;27.70;;;;;;4976383;28;19922;-66
2023/05/13 06:44:39;;;;;;;;;;;33.30;26.80;;;;;;4977095;28;19910;-67
2023/05/13 06:47:05;;;;;;;;;;;33.40;26.50;;;;;;4976777;28;19984;-68
2023/05/13 06:49:33;;;;;;;;;;;33.40;25.30;;;;;;4977146;28;19910;-67
2023/05/13 06:51:58;;;;;;;;;;;33.30;25.40;;;;;;4976163;28;20393;-66
2023/05/13 06:54:25;;;;;;;;;;;33.40;25.50;;;;;;4976365;28;19918;-68
2023/05/13 06:56:52;;;;;;;;;;;33.50;24.80;;;;;;4976365;28;19914;-67
2023/05/13 06:59:18;;;;;;;;;;;33.70;24.80;;;;;;4976202;28;19975;-66
2023/05/13 07:01:44;;;;;;;;;;;33.80;24.60;;;;;;4976554;28;19918;-67
2023/05/13 07:04:09;;;;;;;;;;;34.00;23.90;;;;;;4976364;28;19910;-67
2023/05/13 07:06:35;;;;;;;;;;;34.10;23.50;;;;;;4958931;28;19914;-67
2023/05/13 07:09:00;;;;;;;;;;;34.20;23.90;;;;;;4992270;28;19918;-67
2023/05/13 07:11:27;;;;;;;;;;;34.30;23.60;;;;;;4995104;28;19913;-67
2023/05/13 07:13:53;;;;;;;;;;;34.40;23.70;;;;;;4996426;28;19913;-68
2023/05/13 07:16:18;;;;;;;;;;;34.60;23.60;;;;;;4995212;28;20358;-67
2023/05/13 07:18:44;;;;;;;;;;;34.80;23.30;;;;;;4995035;28;19918;-68
2023/05/13 07:21:09;;;;;;;;;;;34.90;23.40;;;;;;4994708;28;19925;-67
2023/05/13 07:23:34;;;;;;;;;;;35.10;23.20;;;;;;4994074;28;19956;-68
2023/05/13 07:26:00;;;;;;;;;;;35.30;23.00;;;;;;4994241;28;20000;-63
2023/05/13 07:28:26;;;;;;;;;;;35.50;23.30;;;;;;4993732;28;19964;-61
2023/05/13 07:30:52;;;;;;;;;;;35.70;23.20;;;;;;4993688;28;19914;-62
2023/05/13 07:33:17;;;;;;;;;;;36.00;23.30;;;;;;4993685;28;19914;-62
2023/05/13 07:35:43;;;;;;;;;;;36.30;23.20;;;;;;4993533;28;19922;-62
2023/05/13 07:38:09;;;;;;;;;;;36.50;22.30;;;;;;4993459;28;20300;-63
2023/05/13 07:40:35;;;;;;;;;;;36.70;21.80;;;;;;4993505;28;19914;-62
2023/05/13 07:43:01;;;;;;;;;;;36.80;21.80;;;;;;4993133;28;19925;-63
2023/05/13 07:45:26;;;;;;;;;;;36.90;21.80;;;;;;4993398;28;19914;-63
2023/05/13 07:47:52;;;;;;;;;;;36.90;21.00;;;;;;4993314;28;19945;-62
2023/05/13 07:50:17;;;;;;;;;;;37.00;21.40;;;;;;4993042;28;20311;-62
2023/05/13 07:52:43;;;;;;;;;;;37.20;21.60;;;;;;4975595;28;20374;-62
2023/05/13 07:55:09;;;;;;;;;;;37.40;22.00;;;;;;4993126;28;19918;-63
2023/05/13 07:57:35;;;;;;;;;;;37.80;21.70;;;;;;4993052;28;19964;-63
2023/05/13 08:00:00;;;;;;;;;;;37.90;21.50;;;;;;4993178;28;19921;-63
2023/05/13 08:02:26;;;;;;;;;;;38.00;20.30;;;;;;4993049;28;20293;-62
2023/05/13 08:04:51;;;;;;;;;;;38.00;20.20;;;;;;4992534;28;19914;-62
2023/05/13 08:07:17;;;;;;;;;;;37.90;19.90;;;;;;4989895;28;20357;-62
2023/05/13 08:09:42;;;;;;;;;;;38.00;20.40;;;;;;4973562;28;19910;-62
2023/05/13 08:12:08;;;;;;;;;;;38.00;20.00;;;;;;4973345;28;19918;-62
2023/05/13 08:14:33;;;;;;;;;;;38.10;20.20;;;;;;4973387;28;20449;-62
2023/05/13 08:16:59;;;;;;;;;;;38.20;19.90;;;;;;4973558;28;19925;-63
2023/05/13 08:19:25;;;;;;;;;;;38.20;18.90;;;;;;4956215;28;19973;-62
2023/05/13 08:21:50;;;;;;;;;;;37.90;18.90;;;;;;4973206;28;19921;-63
2023/05/13 08:24:16;;;;;;;;;;;37.90;19.40;;;;;;4973193;28;19925;-62
2023/05/13 08:26:41;;;;;;;;;;;38.00;19.40;;;;;;4973194;28;20298;-63
2023/05/13 08:29:11;;;;;;;;;;;38.10;19.40;;;;;;4973172;28;20294;-62
2023/05/13 08:31:37;;;;;;;;;;;38.20;19.20;;;;;;4973574;28;20350;-62
2023/05/13 08:34:02;;;;;;;;;;;38.10;19.50;;;;;;4973499;28;19972;-63
2023/05/13 08:36:27;;;;;;;;;;;38.00;18.90;;;;;;4973625;28;20056;-62
2023/05/13 08:38:53;;;;;;;;;;;37.80;19.10;;;;;;4973197;28;19922;-62
2023/05/13 08:41:19;;;;;;;;;;;37.70;19.20;;;;;;4988405;28;19917;-62
2023/05/13 08:43:46;;;;;;;;;;;37.70;19.00;;;;;;4989536;28;19921;-62
2023/05/13 08:46:11;;;;;;;;;;;37.60;18.80;;;;;;4973437;28;19914;-62
2023/05/13 08:48:40;;;;;;;;;;;37.30;18.50;;;;;;4972953;28;20384;-63
2023/05/13 08:51:06;;;;;;;;;;;37.20;19.00;;;;;;4992745;28;19941;-66
2023/05/13 08:53:33;;;;;;;;;;;37.00;19.40;;;;;;4992507;28;20031;-62
2023/05/13 08:55:59;;;;;;;;;;;37.00;19.20;;;;;;4991791;28;20277;-62
2023/05/13 08:58:24;;;;;;;;;;;37.00;19.40;;;;;;4991217;28;19941;-62
2023/05/13 09:00:50;;;;;;;;;;;37.00;19.10;;;;;;4992620;28;19964;-62
2023/05/13 09:03:16;;;;;;;;;;;37.00;19.20;;;;;;4991566;28;19918;-61
2023/05/13 09:05:42;;;;;;;;;;;37.10;18.80;;;;;;4992494;28;19939;-62
2023/05/13 09:08:08;;;;;;;;;;;37.00;18.30;;;;;;4990650;28;19922;-63
2023/05/13 09:10:34;;;;;;;;;;;36.80;18.80;;;;;;4992729;28;19918;-63
2023/05/13 09:13:01;;;;;;;;;;;36.80;18.50;;;;;;4990859;28;20008;-63
2023/05/13 09:15:27;;;;;;;;;;;36.60;18.70;;;;;;4992612;28;19917;-63
2023/05/13 09:17:54;;;;;;;;;;;36.50;19.00;;;;;;4995375;28;20373;-63
2023/05/13 09:20:21;;;;;;;;;;;36.50;19.10;;;;;;4995661;28;19913;-63
2023/05/13 09:22:47;;;;;;;;;;;36.50;19.20;;;;;;4994854;28;19972;-62
2023/05/13 09:25:13;;;;;;;;;;;36.40;19.30;;;;;;4995672;28;19910;-64
2023/05/13 09:27:40;;;;;;;;;;;36.40;18.90;;;;;;4996015;28;19949;-62
2023/05/13 09:30:06;;;;;;;;;;;36.30;19.50;;;;;;4996361;28;19960;-62
2023/05/13 09:32:32;;;;;;;;;;;36.30;19.20;;;;;;4995011;28;20297;-62
2023/05/13 09:35:07;;;;;;;;;;;36.30;19.10;;;;;;4994712;28;19918;-62
2023/05/13 09:37:32;;;;;;;;;;;36.30;19.20;;;;;;4995360;28;19917;-67
2023/05/13 09:39:58;;;;;;;;;;;36.30;19.10;;;;;;4996466;28;19913;-67
2023/05/13 09:42:24;;;;;;;;;;;36.20;18.90;;;;;;4996299;28;19918;-67
2023/05/13 09:44:49;;;;;;;;;;;36.00;19.30;;;;;;4995707;28;19920;-67
2023/05/13 09:47:15;;;;;;;;;;;36.00;19.30;;;;;;4995705;28;19979;-67
2023/05/13 09:49:42;;;;;;;;;;;36.00;19.10;;;;;;4995234;28;19925;-63
2023/05/13 09:52:10;;;;;;;;;;;36.00;19.50;;;;;;4997779;28;19921;-64
2023/05/13 09:54:38;;;;;;;;;;;36.10;19.70;;;;;;4998463;28;19922;-63
2023/05/13 09:57:04;;;;;;;;;;;36.30;19.10;;;;;;4996561;28;19984;-67
2023/05/13 09:59:31;;;;;;;;;;;36.30;18.90;;;;;;4996169;28;19926;-62
2023/05/13 10:01:58;;;;;;;;;;;36.40;19.10;;;;;;4995184;28;19914;-62
2023/05/13 10:04:25;;;;;;;;;;;36.50;19.10;;;;;;4994122;28;19988;-63
2023/05/13 10:06:50;;;;;;;;;;;36.50;18.50;;;;;;5013321;28;19921;-63
2023/05/13 10:09:16;;;;;;;;;;;36.40;18.80;;;;;;5011125;28;19918;-67
2023/05/13 10:11:44;;;;;;;;;;;36.50;18.90;;;;;;4996819;28;19922;-63
2023/05/13 10:14:10;;;;;;;;;;;36.60;18.80;;;;;;4991436;28;20008;-68
2023/05/13 10:16:36;;;;;;;;;;;36.60;18.90;;;;;;4994753;28;20417;-68
2023/05/13 10:19:02;;;;;;;;;;;36.70;19.00;;;;;;4994684;28;19961;-68
2023/05/13 10:21:28;;;;;;;;;;;36.70;18.80;;;;;;4995994;28;20269;-68
2023/05/13 10:23:54;;;;;;;;;;;36.80;18.90;;;;;;4996264;28;19924;-67
2023/05/13 10:26:20;;;;;;;;;;;36.80;18.50;;;;;;4996064;28;20417;-63
2023/05/13 10:28:46;;;;;;;;;;;37.10;18.60;;;;;;4995626;28;19918;-66
2023/05/13 10:31:12;;;;;;;;;;;37.20;18.20;;;;;;4996420;28;19913;-67
2023/05/13 10:33:38;;;;;;;;;;;37.20;18.20;;;;;;4994471;28;19940;-67
2023/05/13 10:36:26;;;;;;;;;;;37.30;18.40;;;;;;4996149;28;20360;-62
2023/05/13 10:39:03;;;;;;;;;;;37.40;18.30;;;;;;4977677;28;19925;-67
2023/05/13 10:41:46;;;;;;;;;;;37.60;18.30;;;;;;4995944;28;20270;-67
2023/05/13 10:44:12;;;;;;;;;;;37.80;18.40;;;;;;4994166;28;19922;-67
2023/05/13 10:46:38;;;;;;;;;;;38.10;18.50;;;;;;4995648;28;19913;-67
2023/05/13 10:49:04;;;;;;;;;;;38.20;18.00;;;;;;4995011;28;19917;-67
2023/05/13 10:51:30;;;;;;;;;;;38.10;18.10;;;;;;4995813;28;20380;-67
2023/05/13 10:53:59;;;;;;;;;;;38.10;17.90;;;;;;4994121;28;20402;-67
2023/05/13 10:56:26;;;;;;;;;;;37.90;17.80;;;;;;4996008;28;19967;-67
2023/05/13 10:58:58;;;;;;;;;;;37.80;18.10;;;;;;4995122;28;19972;-67
2023/05/13 11:01:27;;;;;;;;;;;37.70;18.30;;;;;;4996046;28;20144;-67
2023/05/13 11:03:54;;;;;;;;;;;37.40;18.40;;;;;;4995040;28;19918;-67
2023/05/13 11:06:23;;;;;;;;;;;37.50;18.70;;;;;;4995834;28;20375;-67
2023/05/13 11:08:49;;;;;;;;;;;37.70;18.60;;;;;;4976245;28;20288;-67
2023/05/13 11:11:21;;;;;;;;;;;37.70;18.10;;;;;;4993795;28;19918;-67
2023/05/13 11:13:48;;;;;;;;;;;37.80;17.90;;;;;;4995510;28;20045;-67
2023/05/13 11:16:13;;;;;;;;;;;37.90;17.90;;;;;;4988844;28;19918;-67
2023/05/13 11:18:39;;;;;;;;;;;37.80;17.80;;;;;;4975958;28;20001;-68
2023/05/13 11:21:06;;;;;;;;;;;37.80;18.00;;;;;;4974127;28;19917;-68
2023/05/13 11:23:33;;;;;;;;;;;37.60;17.70;;;;;;4995753;28;19914;-69
2023/05/13 11:26:15;;;;;;;;;;;37.30;18.10;;;;;;4993688;28;19920;-68
2023/05/13 11:28:53;;;;;;;;;;;37.30;18.00;;;;;;4995317;28;19914;-68
2023/05/13 11:31:20;;;;;;;;;;;37.10;18.40;;;;;;4995239;28;19921;-68
2023/05/13 11:34:04;;;;;;;;;;;37.10;18.60;;;;;;4995362;28;19949;-68
2023/05/13 11:36:31;;;;;;;;;;;37.20;18.60;;;;;;4993910;28;19918;-63
2023/05/13 11:39:04;;;;;;;;;;;37.40;18.80;;;;;;4991939;28;19924;-63
2023/05/13 11:41:31;;;;;;;;;;;37.50;18.50;;;;;;4993062;28;19956;-68
2023/05/13 11:43:58;;;;;;;;;;;37.60;18.70;;;;;;4994360;28;19918;-63
2023/05/13 11:46:24;;;;;;;;;;;37.90;18.90;;;;;;4992676;28;20297;-63
2023/05/13 11:48:50;;;;;;;;;;;38.10;18.00;;;;;;4993457;28;19918;-62
2023/05/13 11:51:18;;;;;;;;;;;37.50;18.30;;;;;;4993006;28;19914;-63
2023/05/13 11:53:43;;;;;;;;;;;37.60;18.40;;;;;;4991483;28;19925;-63
2023/05/13 11:56:12;;;;;;;;;;;37.60;17.90;;;;;;4993399;28;20380;-62
2023/05/13 11:58:37;;;;;;;;;;;37.40;17.40;;;;;;4991963;28;20317;-62
2023/05/13 12:01:03;;;;;;;;;;;37.30;17.90;;;;;;4980917;28;19914;-63
2023/05/13 12:03:28;;;;;;;;;;;37.50;17.80;;;;;;4973850;28;19977;-62
2023/05/13 12:06:04;;;;;;;;;;;37.80;17.40;;;;;;4993167;28;20021;-68
2023/05/13 12:08:30;;;;;;;;;;;37.70;17.40;;;;;;4994014;28;19999;-68
2023/05/13 12:10:57;;;;;;;;;;;37.70;17.50;;;;;;4994908;28;19914;-68
2023/05/13 12:13:23;;;;;;;;;;;37.60;17.20;;;;;;4993330;28;20309;-67
2023/05/13 12:15:49;;;;;;;;;;;37.50;17.40;;;;;;4976806;28;19917;-68
2023/05/13 12:18:14;;;;;;;;;;;37.30;17.10;;;;;;4993695;28;20377;-67
2023/05/13 12:20:40;;;;;;;;;;;36.90;16.70;;;;;;4994790;28;19918;-67
2023/05/13 12:23:05;;;;;;;;;;;36.80;17.00;;;;;;4993565;28;19918;-67
2023/05/13 12:25:33;;;;;;;;;;;37.00;16.80;;;;;;4976976;28;20194;-68
2023/05/13 12:28:05;;;;;;;;;;;37.10;17.00;;;;;;4986667;28;19921;-69
2023/05/13 12:30:34;;;;;;;;;;;37.40;17.20;;;;;;4995328;28;19921;-68
2023/05/13 12:32:59;;;;;;;;;;;37.60;16.70;;;;;;4975398;28;20366;-69
2023/05/13 12:35:25;;;;;;;;;;;36.70;16.80;;;;;;4986245;28;19925;-68
2023/05/13 12:38:03;;;;;;;;;;;35.70;17.30;;;;;;4986739;28;19918;-63
2023/05/13 12:40:28;;;;;;;;;;;34.70;18.00;;;;;;4989981;28;19924;-62
2023/05/13 12:42:57;;;;;;;;;;;34.30;18.60;;;;;;4988902;28;20379;-62
2023/05/13 12:45:26;;;;;;;;;;;34.80;18.40;;;;;;4975266;28;19914;-63
2023/05/13 12:47:51;;;;;;;;;;;35.10;18.10;;;;;;4974706;28;20291;-68
2023/05/13 12:50:18;;;;;;;;;;;35.40;17.80;;;;;;4975333;28;19986;-63
2023/05/13 12:52:43;;;;;;;;;;;35.70;17.60;;;;;;4994957;28;19914;-62
2023/05/13 12:55:09;;;;;;;;;;;35.90;17.30;;;;;;4977993;28;20293;-62
2023/05/13 12:57:34;;;;;;;;;;;36.20;16.60;;;;;;4996422;28;19921;-62
2023/05/13 13:00:00;;;;;;;;;;;36.20;16.10;;;;;;4995261;28;19917;-63
2023/05/13 13:02:25;;;;;;;;;;;36.10;16.10;;;;;;4996498;28;19914;-62
2023/05/13 13:04:51;;;;;;;;;;;36.40;16.40;;;;;;4996459;28;19913;-62
2023/05/13 13:07:16;;;;;;;;;;;36.70;15.90;;;;;;4997660;28;19914;-63
2023/05/13 13:09:42;;;;;;;;;;;36.40;15.50;;;;;;4996802;28;19920;-62
2023/05/13 13:12:07;;;;;;;;;;;36.20;15.60;;;;;;4996214;28;19921;-62
2023/05/13 13:14:33;;;;;;;;;;;36.10;16.00;;;;;;4994266;28;19914;-62
2023/05/13 13:16:58;;;;;;;;;;;36.10;16.50;;;;;;4991825;28;20008;-63
2023/05/13 13:19:23;;;;;;;;;;;36.10;16.70;;;;;;4995278;28;19910;-62
2023/05/13 13:21:49;;;;;;;;;;;36.10;16.20;;;;;;4994236;28;19918;-63
2023/05/13 13:24:14;;;;;;;;;;;35.80;16.50;;;;;;4996146;28;19950;-63
2023/05/13 13:26:40;;;;;;;;;;;35.80;16.80;;;;;;4994462;28;19918;-62
2023/05/13 13:29:05;;;;;;;;;;;35.80;16.60;;;;;;4994829;28;19960;-63
2023/05/13 13:31:31;;;;;;;;;;;36.00;16.40;;;;;;4995714;28;19913;-63
2023/05/13 13:34:02;;;;;;;;;;;36.20;16.60;;;;;;4995611;28;19914;-62
2023/05/13 13:36:28;;;;;;;;;;;36.10;16.70;;;;;;4995050;28;20285;-62
2023/05/13 13:38:53;;;;;;;;;;;36.00;16.90;;;;;;4995117;28;19929;-63
2023/05/13 13:41:19;;;;;;;;;;;35.90;16.30;;;;;;4995699;28;19933;-62
2023/05/13 13:43:45;;;;;;;;;;;35.10;16.50;;;;;;4993823;28;20431;-63
2023/05/13 13:46:10;;;;;;;;;;;34.50;16.80;;;;;;4996046;28;19914;-62
2023/05/13 13:48:36;;;;;;;;;;;34.70;17.10;;;;;;4994748;28;19922;-62
2023/05/13 13:51:01;;;;;;;;;;;34.70;17.20;;;;;;4983660;28;20000;-62
2023/05/13 13:53:27;;;;;;;;;;;34.90;17.50;;;;;;4977934;28;20278;-62
2023/05/13 13:55:52;;;;;;;;;;;35.10;17.30;;;;;;4980081;28;19925;-62
2023/05/13 13:58:18;;;;;;;;;;;34.90;17.30;;;;;;4993448;28;19918;-62
2023/05/13 14:00:43;;;;;;;;;;;34.70;17.50;;;;;;4987067;28;20349;-62
2023/05/13 14:03:09;;;;;;;;;;;34.60;17.50;;;;;;4993464;28;19968;-63
2023/05/13 14:05:34;;;;;;;;;;;34.60;17.60;;;;;;4994975;28;19917;-62
2023/05/13 14:08:00;;;;;;;;;;;34.40;17.20;;;;;;4998240;28;19925;-68
2023/05/13 14:10:25;;;;;;;;;;;34.30;17.70;;;;;;4997247;28;19913;-67